createdAt,value
2022-09-30T00:01:09.997Z,9.70
2022-09-30T00:03:37.930Z,9.80
2022-09-30T00:06:09.102Z,9.80
2022-09-30T00:08:37.989Z,9.80
2022-09-30T00:11:08.889Z,9.80
2022-09-30T00:13:39.246Z,9.90
2022-09-30T00:16:09.712Z,9.80
2022-09-30T00:18:38.189Z,9.80
2022-09-30T00:21:08.714Z,9.80
2022-09-30T00:23:37.936Z,9.80
2022-09-30T00:26:08.089Z,9.80
2022-09-30T00:28:37.233Z,9.80
2022-09-30T00:31:09.784Z,9.80
2022-09-30T00:33:37.865Z,9.80
2022-09-30T00:36:07.583Z,9.80
2022-09-30T00:38:37.588Z,9.80
2022-09-30T00:41:05.460Z,9.90
2022-09-30T00:43:42.536Z,9.90
2022-09-30T00:46:22.086Z,9.90
2022-09-30T00:48:54.016Z,9.90
2022-09-30T00:51:35.100Z,9.90
2022-09-30T00:54:07.818Z,10.00
2022-09-30T00:56:40.626Z,10.00
2022-09-30T00:59:11.713Z,10.00
2022-09-30T01:01:42.296Z,10.00
2022-09-30T01:04:14.914Z,10.00
2022-09-30T01:06:45.347Z,10.10
2022-09-30T01:09:13.441Z,10.10
2022-09-30T01:12:01.911Z,10.10
2022-09-30T01:14:30.474Z,10.10
2022-09-30T01:17:06.622Z,10.10
2022-09-30T01:20:23.693Z,10.10
2022-09-30T01:23:08.401Z,10.10
2022-09-30T01:26:04.531Z,10.00
2022-09-30T01:29:02.423Z,10.00
2022-09-30T01:31:45.982Z,10.00
2022-09-30T01:34:21.340Z,10.00
2022-09-30T01:37:04.334Z,10.00
2022-09-30T01:39:42.932Z,9.90
2022-09-30T01:42:50.130Z,9.90
2022-09-30T01:45:28.033Z,9.90
2022-09-30T01:48:04.361Z,9.90
2022-09-30T01:50:44.223Z,9.90
2022-09-30T01:53:20.290Z,9.90
2022-09-30T01:55:51.753Z,9.80
2022-09-30T01:58:26.589Z,9.80
2022-09-30T02:01:00.837Z,9.70
2022-09-30T02:03:34.154Z,9.70
2022-09-30T02:06:06.247Z,9.70
2022-09-30T02:08:42.353Z,9.70
2022-09-30T02:11:18.851Z,9.70
2022-09-30T02:13:52.926Z,9.70
2022-09-30T02:16:27.158Z,9.70
2022-09-30T02:19:02.265Z,9.70
2022-09-30T02:21:35.588Z,9.80
2022-09-30T02:24:09.942Z,9.80
2022-09-30T02:29:30.866Z,9.80
2022-09-30T02:32:05.107Z,9.80
2022-09-30T02:34:39.659Z,9.80
2022-09-30T02:37:13.258Z,9.80
2022-09-30T02:39:44.915Z,9.90
2022-09-30T02:42:20.394Z,9.90
2022-09-30T02:44:49.688Z,9.90
2022-09-30T02:47:28.173Z,9.80
2022-09-30T02:50:03.648Z,9.80
2022-09-30T02:52:47.866Z,9.80
2022-09-30T02:55:20.184Z,9.80
2022-09-30T02:57:59.400Z,9.70
2022-09-30T03:00:27.746Z,9.70
2022-09-30T03:03:00.692Z,9.70
2022-09-30T03:05:30.267Z,9.60
2022-09-30T03:07:58.382Z,9.60
2022-09-30T03:10:26.457Z,9.50
2022-09-30T03:13:11.725Z,9.50
2022-09-30T03:15:57.953Z,9.40
2022-09-30T03:18:41.018Z,9.30
2022-09-30T03:21:23.245Z,9.30
2022-09-30T03:24:14.531Z,9.20
2022-09-30T03:26:53.121Z,9.20
2022-09-30T03:29:26.534Z,9.10
2022-09-30T03:32:08.824Z,9.10
2022-09-30T03:34:47.423Z,9.10
2022-09-30T03:37:27.123Z,9.10
2022-09-30T03:40:01.573Z,9.00
2022-09-30T03:42:36.071Z,9.00
2022-09-30T03:45:08.853Z,9.00
2022-09-30T03:47:43.199Z,8.90
2022-09-30T03:50:16.379Z,8.80
2022-09-30T03:52:46.086Z,8.80
2022-09-30T03:55:14.262Z,8.70
2022-09-30T03:57:44.292Z,8.70
2022-09-30T04:00:13.889Z,8.70
2022-09-30T04:02:42.144Z,8.60
2022-09-30T04:05:10.237Z,8.60
2022-09-30T04:07:38.198Z,8.60
2022-09-30T04:10:08.437Z,8.60
2022-09-30T04:12:36.401Z,8.60
2022-09-30T04:15:04.411Z,8.50
2022-09-30T04:17:32.292Z,8.50
2022-09-30T04:20:00.177Z,8.50
2022-09-30T04:22:28.030Z,8.40
2022-09-30T04:24:55.875Z,8.40
2022-09-30T04:27:25.304Z,8.40
2022-09-30T04:29:53.202Z,8.40
2022-09-30T04:32:23.342Z,8.40
2022-09-30T04:34:51.195Z,8.40
2022-09-30T04:37:19.177Z,8.40
2022-09-30T04:39:47.126Z,8.30
2022-09-30T04:42:15.028Z,8.30
2022-09-30T04:44:44.383Z,8.30
2022-09-30T04:47:12.266Z,8.30
2022-09-30T04:49:40.100Z,8.40
2022-09-30T04:52:07.950Z,8.40
2022-09-30T04:54:35.848Z,8.40
2022-09-30T04:57:03.765Z,8.30
2022-09-30T04:59:31.669Z,8.30
2022-09-30T05:02:02.222Z,8.30
2022-09-30T05:04:33.354Z,8.30
2022-09-30T05:07:01.802Z,8.30
2022-09-30T05:09:29.827Z,8.20
2022-09-30T05:11:57.795Z,8.20
2022-09-30T05:14:25.705Z,8.20
2022-09-30T05:16:53.596Z,8.20
2022-09-30T05:19:25.531Z,8.20
2022-09-30T05:21:53.380Z,8.20
2022-09-30T05:24:21.429Z,8.20
2022-09-30T05:26:56.748Z,8.20
2022-09-30T05:29:24.651Z,8.10
2022-09-30T05:31:54.709Z,8.10
2022-09-30T05:34:26.403Z,8.10
2022-09-30T05:36:54.286Z,8.10
2022-09-30T05:39:22.216Z,8.10
2022-09-30T05:42:02.096Z,8.10
2022-09-30T05:44:37.524Z,8.10
2022-09-30T05:47:05.827Z,8.10
2022-09-30T05:49:43.658Z,8.00
2022-09-30T05:52:35.707Z,8.00
2022-09-30T05:55:09.149Z,8.00
2022-09-30T05:57:37.285Z,8.00
2022-09-30T06:00:06.522Z,8.00
2022-09-30T06:02:38.465Z,7.90
2022-09-30T06:05:10.875Z,7.90
2022-09-30T06:07:39.926Z,8.00
2022-09-30T06:10:12.132Z,8.00
2022-09-30T06:12:40.348Z,8.00
2022-09-30T06:17:47.617Z,8.00
2022-09-30T06:20:17.234Z,8.10
2022-09-30T06:22:45.106Z,8.10
2022-09-30T06:25:13.050Z,8.10
2022-09-30T06:27:43.189Z,8.20
2022-09-30T06:30:12.333Z,8.20
2022-09-30T06:32:40.285Z,8.20
2022-09-30T06:35:08.704Z,8.30
2022-09-30T06:37:37.985Z,8.40
2022-09-30T06:40:07.608Z,8.40
2022-09-30T06:42:36.010Z,8.50
2022-09-30T06:45:03.955Z,8.60
2022-09-30T06:47:33.329Z,8.60
2022-09-30T06:50:02.426Z,8.60
2022-09-30T06:52:30.327Z,8.70
2022-09-30T06:54:59.605Z,8.70
2022-09-30T06:57:27.833Z,8.80
2022-09-30T06:59:56.183Z,8.80
2022-09-30T07:02:24.245Z,8.90
2022-09-30T07:04:52.182Z,9.00
2022-09-30T07:07:20.823Z,9.00
2022-09-30T07:09:48.937Z,9.10
2022-09-30T07:12:18.364Z,9.20
2022-09-30T07:14:46.269Z,9.20
2022-09-30T07:17:14.149Z,9.30
2022-09-30T07:19:42.037Z,9.30
2022-09-30T07:22:35.841Z,9.40
2022-09-30T07:25:08.093Z,9.50
2022-09-30T07:27:38.002Z,9.60
2022-09-30T07:30:26.692Z,9.80
2022-09-30T07:32:57.745Z,9.90
2022-09-30T07:35:25.630Z,10.00
2022-09-30T07:37:55.537Z,10.10
2022-09-30T07:40:23.405Z,10.30
2022-09-30T07:42:59.739Z,10.30
2022-09-30T07:45:28.417Z,10.40
2022-09-30T07:47:59.868Z,10.50
2022-09-30T07:50:27.674Z,10.50
2022-09-30T07:53:03.754Z,10.70
2022-09-30T07:55:32.578Z,10.70
2022-09-30T07:58:09.468Z,10.90
2022-09-30T08:00:42.481Z,11.00
2022-09-30T08:03:11.497Z,11.10
2022-09-30T08:05:49.815Z,11.20
2022-09-30T08:08:18.882Z,11.30
2022-09-30T08:10:46.684Z,11.50
2022-09-30T08:13:16.688Z,11.60
2022-09-30T08:15:48.927Z,11.70
2022-09-30T08:18:16.831Z,11.80
2022-09-30T08:20:46.832Z,11.90
2022-09-30T08:23:14.717Z,11.90
2022-09-30T08:25:42.554Z,11.90
2022-09-30T08:42:57.788Z,12.00
2022-09-30T08:45:43.054Z,12.40
2022-09-30T08:48:28.726Z,12.50
2022-09-30T08:51:05.688Z,12.70
2022-09-30T08:56:28.324Z,13.00
2022-09-30T08:59:07.133Z,13.20
2022-09-30T09:01:37.517Z,13.20
2022-09-30T09:04:07.478Z,13.30
2022-09-30T09:06:56.613Z,13.30
2022-09-30T09:09:45.719Z,13.30
2022-09-30T09:13:05.864Z,13.20
2022-09-30T09:19:07.562Z,13.30
2022-09-30T09:21:49.773Z,13.30
2022-09-30T09:27:26.395Z,13.30
2022-09-30T09:33:21.282Z,13.20
2022-09-30T09:35:52.743Z,13.30
2022-09-30T09:38:56.319Z,13.30
2022-09-30T09:41:43.370Z,13.40
2022-09-30T09:44:22.386Z,13.40
2022-09-30T09:46:56.509Z,13.50
2022-09-30T09:50:04.379Z,13.60
2022-09-30T09:59:19.736Z,13.90
2022-09-30T10:02:23.142Z,13.90
2022-09-30T10:05:33.287Z,13.90
2022-09-30T10:08:35.264Z,13.90
2022-09-30T10:11:15.701Z,13.90
2022-09-30T10:14:06.096Z,13.90
2022-09-30T10:17:03.008Z,13.90
2022-09-30T10:22:34.780Z,13.90
2022-09-30T10:28:32.893Z,14.00
2022-09-30T10:31:08.062Z,14.10
2022-09-30T10:33:52.955Z,14.10
2022-09-30T10:36:26.828Z,14.20
2022-09-30T10:39:05.920Z,14.30
2022-09-30T10:41:37.909Z,14.40
2022-09-30T10:44:13.440Z,14.40
2022-09-30T10:46:44.992Z,14.50
2022-09-30T10:49:26.813Z,14.60
2022-09-30T10:51:56.949Z,14.70
2022-09-30T10:55:36.617Z,14.70
2022-09-30T10:58:44.282Z,14.80
2022-09-30T11:01:36.338Z,14.90
2022-09-30T11:04:51.141Z,14.80
2022-09-30T11:07:36.253Z,14.90
2022-09-30T11:13:10.461Z,14.90
2022-09-30T11:15:57.950Z,15.00
2022-09-30T11:18:39.112Z,15.00
2022-09-30T11:21:56.129Z,15.20
2022-09-30T11:24:33.952Z,15.30
2022-09-30T11:27:16.748Z,15.40
2022-09-30T11:30:12.138Z,15.50
2022-09-30T11:32:57.454Z,15.60
2022-09-30T11:35:39.400Z,15.70
2022-09-30T11:41:32.615Z,15.80
2022-09-30T11:44:21.636Z,15.80
2022-09-30T11:47:33.145Z,15.80
2022-09-30T11:50:26.157Z,15.80
2022-09-30T11:53:41.718Z,15.80
2022-09-30T11:59:55.623Z,15.80
2022-09-30T12:02:52.309Z,15.90
2022-09-30T12:06:16.939Z,15.90
2022-09-30T12:09:19.607Z,16.00
2022-09-30T12:12:22.264Z,16.00
2022-09-30T12:15:03.484Z,16.00
2022-09-30T12:20:37.930Z,16.00
2022-09-30T12:23:26.162Z,16.00
2022-09-30T12:26:00.311Z,16.00
2022-09-30T12:28:51.333Z,16.10
2022-09-30T12:31:49.310Z,16.20
2022-09-30T12:34:32.073Z,16.10
2022-09-30T12:37:24.836Z,16.00
2022-09-30T12:40:18.914Z,15.80
2022-09-30T12:43:12.244Z,15.70
2022-09-30T12:46:20.837Z,15.70
2022-09-30T12:48:51.349Z,15.70
2022-09-30T12:51:29.168Z,15.70
2022-09-30T12:54:04.461Z,15.70
2022-09-30T12:56:39.062Z,15.80
2022-09-30T12:59:12.560Z,15.80
2022-09-30T13:01:43.386Z,15.80
2022-09-30T13:04:21.055Z,15.90
2022-09-30T13:07:21.297Z,15.90
2022-09-30T13:10:01.182Z,15.90
2022-09-30T13:12:42.599Z,15.90
2022-09-30T13:15:53.062Z,15.90
2022-09-30T13:19:02.249Z,16.00
2022-09-30T13:21:32.016Z,16.10
2022-09-30T13:24:13.027Z,16.10
2022-09-30T13:26:49.813Z,16.20
2022-09-30T13:29:40.381Z,16.20
2022-09-30T13:32:11.998Z,16.20
2022-09-30T13:35:00.560Z,16.20
2022-09-30T13:37:40.060Z,16.20
2022-09-30T13:40:43.627Z,16.20
2022-09-30T13:43:21.285Z,16.20
2022-09-30T13:45:53.024Z,16.20
2022-09-30T13:48:40.456Z,16.20
2022-09-30T13:54:04.938Z,16.40
2022-09-30T13:57:06.057Z,16.40
2022-09-30T14:00:20.856Z,16.40
2022-09-30T14:03:14.150Z,16.40
2022-09-30T14:05:55.523Z,16.40
2022-09-30T14:08:53.988Z,16.30
2022-09-30T14:11:45.250Z,16.30
2022-09-30T14:14:38.058Z,16.20
2022-09-30T14:17:24.801Z,16.20
2022-09-30T14:20:05.812Z,16.20
2022-09-30T14:22:42.481Z,16.30
2022-09-30T14:25:16.486Z,16.30
2022-09-30T14:28:06.279Z,16.40
2022-09-30T14:30:40.261Z,16.40
2022-09-30T14:33:28.651Z,16.40
2022-09-30T14:36:11.490Z,16.40
2022-09-30T14:38:45.371Z,16.40
2022-09-30T14:41:21.744Z,16.30
2022-09-30T14:43:58.881Z,16.30
2022-09-30T14:46:31.175Z,16.30
2022-09-30T14:49:08.430Z,16.40
2022-09-30T14:51:44.903Z,16.40
2022-09-30T14:54:22.568Z,16.50
2022-09-30T14:56:54.445Z,16.60
2022-09-30T14:59:26.838Z,16.60
2022-09-30T15:02:00.593Z,16.60
2022-09-30T15:04:40.154Z,16.60
2022-09-30T15:07:13.945Z,16.60
2022-09-30T15:09:46.950Z,16.60
2022-09-30T15:12:18.098Z,16.60
2022-09-30T15:14:50.047Z,16.80
2022-09-30T15:17:20.724Z,17.10
2022-09-30T15:19:50.266Z,17.30
2022-09-30T15:22:19.461Z,17.40
2022-09-30T15:24:50.861Z,17.30
2022-09-30T15:27:25.078Z,17.10
2022-09-30T15:30:04.161Z,16.90
2022-09-30T15:32:36.493Z,16.80
2022-09-30T15:35:08.292Z,16.70
2022-09-30T15:37:37.382Z,16.70
2022-09-30T15:40:34.621Z,17.00
2022-09-30T15:43:06.887Z,17.40
2022-09-30T15:45:39.502Z,17.60
2022-09-30T15:48:09.050Z,17.60
2022-09-30T15:50:43.532Z,17.30
2022-09-30T15:53:21.220Z,17.10
2022-09-30T15:55:53.446Z,16.80
2022-09-30T15:58:37.921Z,16.50
2022-09-30T16:01:17.567Z,16.30
2022-09-30T16:03:55.314Z,16.20
2022-09-30T16:06:32.393Z,16.00
2022-09-30T16:09:03.429Z,15.90
2022-09-30T16:11:36.643Z,15.80
2022-09-30T16:14:10.700Z,15.80
2022-09-30T16:16:39.818Z,15.80
2022-09-30T16:22:52.513Z,15.70
2022-09-30T16:25:33.206Z,15.60
2022-09-30T16:28:12.648Z,15.60
2022-09-30T16:30:49.317Z,15.50
2022-09-30T16:33:46.246Z,15.50
2022-09-30T16:36:51.731Z,15.40
2022-09-30T16:39:20.384Z,15.40
2022-09-30T16:41:51.841Z,15.30
2022-09-30T16:44:30.054Z,15.30
2022-09-30T16:47:01.293Z,15.30
2022-09-30T16:52:40.992Z,15.30
2022-09-30T16:55:10.021Z,15.20
2022-09-30T16:57:43.268Z,15.20
2022-09-30T17:00:36.005Z,15.20
2022-09-30T17:03:19.474Z,15.20
2022-09-30T17:05:55.106Z,15.20
2022-09-30T17:08:24.205Z,15.10
2022-09-30T17:10:54.078Z,15.10
2022-09-30T17:13:24.690Z,15.10
2022-09-30T17:16:21.842Z,15.10
2022-09-30T17:18:54.608Z,15.10
2022-09-30T17:25:05.438Z,15.00
2022-09-30T17:31:27.558Z,14.90
2022-09-30T17:33:56.535Z,14.80
2022-09-30T17:36:25.170Z,14.80
2022-09-30T17:39:25.569Z,14.70
2022-09-30T17:45:04.319Z,14.60
2022-09-30T17:47:39.580Z,14.50
2022-09-30T17:50:22.149Z,14.50
2022-09-30T17:52:50.016Z,14.40
2022-09-30T17:55:17.858Z,14.50
2022-09-30T17:58:21.985Z,14.40
2022-09-30T18:00:49.824Z,14.40
2022-09-30T18:03:20.040Z,14.40
2022-09-30T18:08:49.845Z,14.30
2022-09-30T18:11:21.146Z,14.30
2022-09-30T18:13:55.897Z,14.20
2022-09-30T18:16:24.491Z,14.20
2022-09-30T18:18:53.925Z,14.20
2022-09-30T18:21:24.919Z,14.10
2022-09-30T18:24:02.529Z,14.10
2022-09-30T18:26:33.511Z,14.10
2022-09-30T18:29:24.074Z,14.10
2022-09-30T18:32:08.707Z,14.10
2022-09-30T18:34:42.563Z,14.10
2022-09-30T18:37:14.447Z,14.10
2022-09-30T18:42:47.105Z,14.10
2022-09-30T18:45:41.141Z,14.00
2022-09-30T18:48:17.086Z,14.00
2022-09-30T18:50:52.039Z,14.00
2022-09-30T18:53:20.627Z,14.00
2022-09-30T18:55:52.657Z,14.00
2022-09-30T18:58:20.488Z,14.00
2022-09-30T19:00:48.346Z,14.00
2022-09-30T19:03:19.001Z,14.00
2022-09-30T19:05:46.823Z,14.00
2022-09-30T19:08:16.990Z,13.90
2022-09-30T19:10:46.861Z,13.90
2022-09-30T19:13:16.145Z,13.90
2022-09-30T19:15:43.980Z,13.90
2022-09-30T19:18:11.765Z,13.90
2022-09-30T19:20:41.841Z,13.90
2022-09-30T19:23:10.758Z,13.90
2022-09-30T19:25:42.689Z,13.90
2022-09-30T19:28:23.078Z,13.90
2022-09-30T19:30:52.273Z,13.90
2022-09-30T19:33:26.104Z,13.90
2022-09-30T19:36:14.852Z,13.90
2022-09-30T19:38:45.111Z,14.00
2022-09-30T19:41:15.225Z,14.00
2022-09-30T19:43:45.943Z,14.00
2022-09-30T19:46:18.114Z,14.00
2022-09-30T19:48:46.188Z,14.00
2022-09-30T19:51:16.906Z,14.00
2022-09-30T19:53:57.195Z,14.00
2022-09-30T19:56:30.460Z,14.00
2022-09-30T19:59:03.582Z,14.00
2022-09-30T20:01:34.459Z,14.00
2022-09-30T20:04:04.893Z,14.00
2022-09-30T20:06:38.331Z,14.00
2022-09-30T20:09:12.926Z,14.00
2022-09-30T20:11:42.522Z,14.00
2022-09-30T20:14:27.639Z,14.00
2022-09-30T20:17:03.760Z,14.00
2022-09-30T20:19:31.569Z,14.00
2022-09-30T20:21:59.518Z,14.00
2022-09-30T20:24:27.340Z,14.00
2022-09-30T20:26:57.538Z,14.00
2022-09-30T20:29:33.073Z,14.00
2022-09-30T20:32:02.901Z,14.00
2022-09-30T20:34:31.515Z,14.00
2022-09-30T20:37:01.312Z,14.00
2022-09-30T20:39:29.114Z,14.10
2022-09-30T20:41:58.674Z,14.10
2022-09-30T20:44:26.495Z,14.10
2022-09-30T20:46:57.167Z,14.10
2022-09-30T20:49:28.482Z,14.10
2022-09-30T20:51:56.262Z,14.10
2022-09-30T20:54:25.586Z,14.10
2022-09-30T20:57:09.142Z,14.10
2022-09-30T20:59:39.406Z,14.10
2022-09-30T21:02:07.785Z,14.10
2022-09-30T21:04:36.926Z,14.10
2022-09-30T21:07:04.716Z,14.10
2022-09-30T21:09:38.775Z,14.10
2022-09-30T21:12:09.552Z,14.10
2022-09-30T21:14:40.124Z,14.10
2022-09-30T21:17:08.112Z,14.10
2022-09-30T21:19:37.970Z,14.00
2022-09-30T21:22:13.495Z,14.00
2022-09-30T21:27:28.559Z,13.90
2022-09-30T21:29:56.965Z,13.80
2022-09-30T21:32:24.986Z,13.80
2022-09-30T21:34:54.142Z,13.70
2022-09-30T21:37:21.970Z,13.70
2022-09-30T21:39:49.792Z,13.60
2022-09-30T21:42:17.593Z,13.50
2022-09-30T21:44:45.430Z,13.50
2022-09-30T21:47:14.530Z,13.40
2022-09-30T21:49:42.536Z,13.40
2022-09-30T21:52:19.086Z,13.30
2022-09-30T21:54:47.037Z,13.30
2022-09-30T21:57:15.307Z,13.20
2022-09-30T21:59:46.302Z,13.20
2022-09-30T22:02:16.488Z,13.10
2022-09-30T22:04:44.493Z,13.10
2022-09-30T22:07:15.375Z,13.00
2022-09-30T22:09:43.721Z,13.00
2022-09-30T22:12:11.799Z,13.00
2022-09-30T22:14:39.606Z,13.00
2022-09-30T22:17:09.128Z,12.90
2022-09-30T22:19:38.807Z,12.90
2022-09-30T22:22:06.609Z,12.90
2022-09-30T22:24:36.872Z,12.80
2022-09-30T22:27:06.643Z,12.80
2022-09-30T22:29:34.794Z,12.70
2022-09-30T22:32:03.239Z,12.60
2022-09-30T22:34:49.850Z,12.60
2022-09-30T22:37:34.951Z,12.50
2022-09-30T22:40:04.500Z,12.50
2022-09-30T22:42:37.203Z,12.40
2022-09-30T22:45:10.385Z,12.40
2022-09-30T22:47:39.056Z,12.40
2022-09-30T22:53:03.807Z,12.40
2022-09-30T22:55:35.527Z,12.40
2022-09-30T22:58:07.034Z,12.40
2022-09-30T23:00:35.364Z,12.30
2022-09-30T23:03:10.192Z,12.30
2022-09-30T23:05:38.199Z,12.30
2022-09-30T23:08:16.966Z,12.20
2022-09-30T23:10:50.777Z,12.20
2022-09-30T23:13:20.671Z,12.20
2022-09-30T23:15:51.937Z,12.20
2022-09-30T23:18:19.950Z,12.10
2022-09-30T23:20:56.350Z,12.10
2022-09-30T23:23:24.427Z,12.10
2022-09-30T23:26:00.930Z,12.10
2022-09-30T23:28:29.157Z,12.00
2022-09-30T23:31:00.879Z,12.00
2022-09-30T23:33:33.153Z,12.00
2022-09-30T23:36:01.187Z,12.00
2022-09-30T23:38:31.703Z,12.00
2022-09-30T23:41:05.168Z,12.00
2022-09-30T23:43:35.092Z,12.00
2022-09-30T23:46:03.241Z,11.90
2022-09-30T23:48:33.470Z,11.90
2022-09-30T23:51:01.839Z,11.90
2022-09-30T23:53:30.230Z,11.80
2022-09-30T23:56:05.846Z,11.80
2022-09-30T23:58:34.566Z,11.70
